sensor_id;sensor_type;location;lat;lon;timestamp;pressure;altitude;pressure_sealevel;temperature;humidity
11682;BME280;5897;42.640;23.310;2023-02-28T00:01:19;94330.31;;;8.50;100.00
11682;BME280;5897;42.640;23.310;2023-02-28T00:03:46;94320.69;;;8.49;100.00
11682;BME280;5897;42.640;23.310;2023-02-28T00:06:13;94334.09;;;8.53;100.00
11682;BME280;5897;42.640;23.310;2023-02-28T00:08:40;94342.81;;;8.30;100.00
11682;BME280;5897;42.640;23.310;2023-02-28T00:11:10;94328.56;;;8.33;100.00
11682;BME280;5897;42.640;23.310;2023-02-28T00:13:39;94330.53;;;8.29;100.00
11682;BME280;5897;42.640;23.310;2023-02-28T00:16:08;94337.53;;;8.23;100.00
11682;BME280;5897;42.640;23.310;2023-02-28T00:18:35;94336.75;;;8.19;100.00
11682;BME280;5897;42.640;23.310;2023-02-28T00:21:02;94345.53;;;8.30;100.00
11682;BME280;5897;42.640;23.310;2023-02-28T00:23:30;94334.78;;;8.27;100.00
11682;BME280;5897;42.640;23.310;2023-02-28T00:25:56;94341.22;;;8.36;100.00
11682;BME280;5897;42.640;23.310;2023-02-28T00:28:25;94346.47;;;8.47;100.00
11682;BME280;5897;42.640;23.310;2023-02-28T00:30:52;94347.97;;;8.51;100.00
11682;BME280;5897;42.640;23.310;2023-02-28T00:33:19;94350.25;;;8.53;100.00
11682;BME280;5897;42.640;23.310;2023-02-28T00:35:46;94341.47;;;8.49;100.00
11682;BME280;5897;42.640;23.310;2023-02-28T00:38:14;94342.22;;;8.49;100.00
11682;BME280;5897;42.640;23.310;2023-02-28T00:40:41;94345.63;;;8.53;100.00
11682;BME280;5897;42.640;23.310;2023-02-28T00:43:08;94323.84;;;8.41;100.00
11682;BME280;5897;42.640;23.310;2023-02-28T00:45:36;94334.09;;;8.53;100.00
11682;BME280;5897;42.640;23.310;2023-02-28T00:48:03;94340.25;;;8.53;100.00
11682;BME280;5897;42.640;23.310;2023-02-28T00:50:30;94347.16;;;8.54;100.00
11682;BME280;5897;42.640;23.310;2023-02-28T00:52:57;94335.75;;;8.43;100.00
11682;BME280;5897;42.640;23.310;2023-02-28T00:55:24;94331.28;;;8.33;100.00
11682;BME280;5897;42.640;23.310;2023-02-28T00:57:51;94346.13;;;8.45;100.00
11682;BME280;5897;42.640;23.310;2023-02-28T01:00:18;94311.00;;;8.22;100.00
11682;BME280;5897;42.640;23.310;2023-02-28T01:02:46;94336.91;;;8.42;100.00
11682;BME280;5897;42.640;23.310;2023-02-28T01:05:14;94338.13;;;8.38;100.00
11682;BME280;5897;42.640;23.310;2023-02-28T01:07:41;94338.19;;;8.34;100.00
11682;BME280;5897;42.640;23.310;2023-02-28T01:10:09;94337.00;;;8.35;100.00
11682;BME280;5897;42.640;23.310;2023-02-28T01:12:36;94337.00;;;8.35;100.00
11682;BME280;5897;42.640;23.310;2023-02-28T01:15:04;94335.78;;;8.40;100.00
11682;BME280;5897;42.640;23.310;2023-02-28T01:17:31;94334.75;;;8.30;100.00
11682;BME280;5897;42.640;23.310;2023-02-28T01:19:59;94337.44;;;8.30;100.00
11682;BME280;5897;42.640;23.310;2023-02-28T01:22:26;94334.72;;;8.34;100.00
11682;BME280;5897;42.640;23.310;2023-02-28T01:24:53;94333.50;;;8.38;100.00
11682;BME280;5897;42.640;23.310;2023-02-28T01:27:20;94334.56;;;8.44;100.00
11682;BME280;5897;42.640;23.310;2023-02-28T01:29:47;94323.63;;;8.28;100.00
11682;BME280;5897;42.640;23.310;2023-02-28T01:32:14;94331.72;;;8.28;100.00
11682;BME280;5897;42.640;23.310;2023-02-28T01:34:41;94331.28;;;8.33;100.00
11682;BME280;5897;42.640;23.310;2023-02-28T01:37:09;94326.28;;;8.32;100.00
11682;BME280;5897;42.640;23.310;2023-02-28T01:39:36;94332.75;;;8.38;100.00
11682;BME280;5897;42.640;23.310;2023-02-28T01:42:03;94326.59;;;8.37;100.00
11682;BME280;5897;42.640;23.310;2023-02-28T01:44:57;94341.91;;;8.44;100.00
11682;BME280;5897;42.640;23.310;2023-02-28T01:47:26;94337.31;;;8.41;100.00
11682;BME280;5897;42.640;23.310;2023-02-28T01:49:54;94346.59;;;8.36;100.00
11682;BME280;5897;42.640;23.310;2023-02-28T01:52:23;94342.78;;;8.34;100.00
11682;BME280;5897;42.640;23.310;2023-02-28T01:54:52;94332.16;;;8.23;100.00
11682;BME280;5897;42.640;23.310;2023-02-28T01:57:23;94343.97;;;8.33;100.00
11682;BME280;5897;42.640;23.310;2023-02-28T01:59:54;94344.34;;;8.31;100.00
11682;BME280;5897;42.640;23.310;2023-02-28T02:02:24;94341.66;;;8.31;100.00
11682;BME280;5897;42.640;23.310;2023-02-28T02:04:55;94342.47;;;8.28;100.00
11682;BME280;5897;42.640;23.310;2023-02-28T02:07:26;94343.59;;;8.31;100.00
11682;BME280;5897;42.640;23.310;2023-02-28T02:10:00;94333.66;;;8.24;100.00
11682;BME280;5897;42.640;23.310;2023-02-28T02:12:37;94316.78;;;8.20;100.00
11682;BME280;5897;42.640;23.310;2023-02-28T02:15:12;94334.78;;;8.27;100.00
11682;BME280;5897;42.640;23.310;2023-02-28T02:17:44;94335.97;;;8.26;100.00
11682;BME280;5897;42.640;23.310;2023-02-28T02:20:46;94326.03;;;8.16;100.00
11682;BME280;5897;42.640;23.310;2023-02-28T02:23:50;94334.44;;;8.21;100.00
11682;BME280;5897;42.640;23.310;2023-02-28T02:29:40;94336.75;;;8.19;100.00
11682;BME280;5897;42.640;23.310;2023-02-28T02:32:36;94330.59;;;8.19;100.00
11682;BME280;5897;42.640;23.310;2023-02-28T02:35:13;94326.38;;;8.21;100.00
11682;BME280;5897;42.640;23.310;2023-02-28T02:37:44;94330.25;;;8.17;100.00
11682;BME280;5897;42.640;23.310;2023-02-28T02:40:16;94330.25;;;8.17;100.00
11682;BME280;5897;42.640;23.310;2023-02-28T02:42:50;94336.75;;;8.19;100.00
11682;BME280;5897;42.640;23.310;2023-02-28T02:45:21;94331.53;;;8.05;100.00
11682;BME280;5897;42.640;23.310;2023-02-28T02:47:50;94332.72;;;8.01;100.00
11682;BME280;5897;42.640;23.310;2023-02-28T02:50:23;94331.53;;;8.05;100.00
11682;BME280;5897;42.640;23.310;2023-02-28T02:52:54;94341.13;;;8.06;100.00
11682;BME280;5897;42.640;23.310;2023-02-28T02:55:23;94340.31;;;8.09;100.00
11682;BME280;5897;42.640;23.310;2023-02-28T02:57:53;94346.88;;;8.08;100.00
11682;BME280;5897;42.640;23.310;2023-02-28T03:00:24;94351.50;;;8.04;100.00
11682;BME280;5897;42.640;23.310;2023-02-28T03:02:54;94350.78;;;8.04;100.00
11682;BME280;5897;42.640;23.310;2023-02-28T03:05:25;94362.69;;;8.03;100.00
11682;BME280;5897;42.640;23.310;2023-02-28T03:07:53;94361.50;;;8.07;100.00
11682;BME280;5897;42.640;23.310;2023-02-28T03:10:32;94361.81;;;8.13;100.00
11682;BME280;5897;42.640;23.310;2023-02-28T03:13:15;94371.91;;;8.02;100.00
11682;BME280;5897;42.640;23.310;2023-02-28T03:15:55;94384.25;;;7.99;100.00
11682;BME280;5897;42.640;23.310;2023-02-28T03:18:30;94382.75;;;7.95;100.00
11682;BME280;5897;42.640;23.310;2023-02-28T03:21:06;94382.66;;;8.02;100.00
11682;BME280;5897;42.640;23.310;2023-02-28T03:23:40;94383.44;;;8.02;100.00
11682;BME280;5897;42.640;23.310;2023-02-28T03:26:15;94384.63;;;8.01;100.00
11682;BME280;5897;42.640;23.310;2023-02-28T03:28:52;94386.94;;;7.99;100.00
11682;BME280;5897;42.640;23.310;2023-02-28T03:31:27;94383.84;;;8.01;100.00
11682;BME280;5897;42.640;23.310;2023-02-28T03:34:01;94389.19;;;8.04;100.00
11682;BME280;5897;42.640;23.310;2023-02-28T03:36:36;94393.00;;;8.07;100.00
11682;BME280;5897;42.640;23.310;2023-02-28T03:39:13;94395.03;;;7.99;100.00
11682;BME280;5897;42.640;23.310;2023-02-28T03:41:44;94399.94;;;8.04;100.00
11682;BME280;5897;42.640;23.310;2023-02-28T03:44:17;94392.63;;;8.08;100.00
11682;BME280;5897;42.640;23.310;2023-02-28T03:46:52;94398.38;;;8.07;100.00
11682;BME280;5897;42.640;23.310;2023-02-28T03:49:23;94396.03;;;8.12;100.00
11682;BME280;5897;42.640;23.310;2023-02-28T03:51:54;94396.91;;;8.02;100.00
11682;BME280;5897;42.640;23.310;2023-02-28T03:54:27;94393.78;;;8.07;100.00
11682;BME280;5897;42.640;23.310;2023-02-28T03:56:59;94396.13;;;8.05;100.00
11682;BME280;5897;42.640;23.310;2023-02-28T03:59:28;94400.00;;;7.97;100.00
11682;BME280;5897;42.640;23.310;2023-02-28T04:01:57;94401.53;;;7.98;100.00
11682;BME280;5897;42.640;23.310;2023-02-28T04:04:24;94407.31;;;8.00;100.00
11682;BME280;5897;42.640;23.310;2023-02-28T04:07:00;94391.59;;;7.95;100.00
11682;BME280;5897;42.640;23.310;2023-02-28T04:09:28;94402.38;;;7.92;100.00
11682;BME280;5897;42.640;23.310;2023-02-28T04:11:55;94396.97;;;7.95;100.00
11682;BME280;5897;42.640;23.310;2023-02-28T04:14:22;94407.78;;;7.88;100.00
11682;BME280;5897;42.640;23.310;2023-02-28T04:16:49;94402.72;;;7.97;100.00
11682;BME280;5897;42.640;23.310;2023-02-28T04:19:17;94401.97;;;7.93;100.00
11682;BME280;5897;42.640;23.310;2023-02-28T04:21:45;94401.28;;;7.86;100.00
11682;BME280;5897;42.640;23.310;2023-02-28T04:24:16;94383.31;;;7.76;100.00
11682;BME280;5897;42.640;23.310;2023-02-28T04:26:44;94397.72;;;7.99;100.00
11682;BME280;5897;42.640;23.310;2023-02-28T04:29:13;94392.28;;;8.03;100.00
11682;BME280;5897;42.640;23.310;2023-02-28T04:31:40;94399.94;;;8.04;100.00
11682;BME280;5897;42.640;23.310;2023-02-28T04:34:07;94383.88;;;7.97;100.00
11682;BME280;5897;42.640;23.310;2023-02-28T04:36:34;94403.72;;;8.10;100.00
11682;BME280;5897;42.640;23.310;2023-02-28T04:39:01;94408.41;;;8.06;100.00
11682;BME280;5897;42.640;23.310;2023-02-28T04:41:30;94406.88;;;8.05;100.00
11682;BME280;5897;42.640;23.310;2023-02-28T04:43:58;94414.63;;;7.96;100.00
11682;BME280;5897;42.640;23.310;2023-02-28T04:46:24;94413.88;;;7.92;100.00
11682;BME280;5897;42.640;23.310;2023-02-28T04:48:51;94415.44;;;7.90;100.00
11682;BME280;5897;42.640;23.310;2023-02-28T04:51:19;94417.88;;;7.77;100.00
11682;BME280;5897;42.640;23.310;2023-02-28T04:53:46;94422.44;;;7.80;100.00
11682;BME280;5897;42.640;23.310;2023-02-28T04:56:15;94425.56;;;7.75;100.00
11682;BME280;5897;42.640;23.310;2023-02-28T04:58:44;94435.53;;;7.78;100.00
11682;BME280;5897;42.640;23.310;2023-02-28T05:01:20;94426.34;;;7.72;100.00
11682;BME280;5897;42.640;23.310;2023-02-28T05:03:47;94429.81;;;7.69;100.00
11682;BME280;5897;42.640;23.310;2023-02-28T05:06:15;94439.47;;;7.63;100.00
11682;BME280;5897;42.640;23.310;2023-02-28T05:08:43;94433.31;;;7.66;100.00
11682;BME280;5897;42.640;23.310;2023-02-28T05:11:15;94427.53;;;7.71;100.00
11682;BME280;5897;42.640;23.310;2023-02-28T05:13:44;94429.47;;;7.67;100.00
11682;BME280;5897;42.640;23.310;2023-02-28T05:16:11;94434.84;;;7.67;100.00
11682;BME280;5897;42.640;23.310;2023-02-28T05:18:38;94424.97;;;7.50;100.00
11682;BME280;5897;42.640;23.310;2023-02-28T05:21:05;94418.13;;;7.42;100.00
11682;BME280;5897;42.640;23.310;2023-02-28T05:23:32;94437.63;;;7.57;100.00
11682;BME280;5897;42.640;23.310;2023-02-28T05:25:59;94436.81;;;7.60;100.00
11682;BME280;5897;42.640;23.310;2023-02-28T05:28:26;94446.38;;;7.64;100.00
11682;BME280;5897;42.640;23.310;2023-02-28T05:30:54;94444.84;;;7.63;100.00
11682;BME280;5897;42.640;23.310;2023-02-28T05:33:21;94457.13;;;7.64;100.00
11682;BME280;5897;42.640;23.310;2023-02-28T05:35:47;94454.84;;;7.66;100.00
11682;BME280;5897;42.640;23.310;2023-02-28T05:38:14;94459.81;;;7.68;100.00
11682;BME280;5897;42.640;23.310;2023-02-28T05:40:42;94460.56;;;7.68;100.00
11682;BME280;5897;42.640;23.310;2023-02-28T05:43:10;94461.38;;;7.65;100.00
11682;BME280;5897;42.640;23.310;2023-02-28T05:45:38;94462.16;;;7.62;100.00
11682;BME280;5897;42.640;23.310;2023-02-28T05:48:07;94464.03;;;7.69;100.00
11682;BME280;5897;42.640;23.310;2023-02-28T05:50:34;94460.91;;;7.77;100.00
11682;BME280;5897;42.640;23.310;2023-02-28T05:53:01;94468.94;;;7.81;100.00
11682;BME280;5897;42.640;23.310;2023-02-28T05:55:28;94465.09;;;7.82;100.00
11682;BME280;5897;42.640;23.310;2023-02-28T05:57:55;94466.97;;;7.85;100.00
11682;BME280;5897;42.640;23.310;2023-02-28T06:00:22;94472.34;;;7.88;100.00
11682;BME280;5897;42.640;23.310;2023-02-28T06:02:49;94471.91;;;7.97;100.00
11682;BME280;5897;42.640;23.310;2023-02-28T06:05:18;94461.91;;;7.97;100.00
11682;BME280;5897;42.640;23.310;2023-02-28T06:07:45;94469.97;;;7.97;100.00
11682;BME280;5897;42.640;23.310;2023-02-28T06:10:13;94475.44;;;7.87;100.00
11682;BME280;5897;42.640;23.310;2023-02-28T06:12:40;94468.56;;;7.82;100.00
11682;BME280;5897;42.640;23.310;2023-02-28T06:15:12;94466.97;;;7.85;100.00
11682;BME280;5897;42.640;23.310;2023-02-28T06:17:40;94467.66;;;7.99;100.00
11682;BME280;5897;42.640;23.310;2023-02-28T06:20:08;94464.66;;;7.90;100.00
11682;BME280;5897;42.640;23.310;2023-02-28T06:22:37;94468.03;;;8.01;100.00
11682;BME280;5897;42.640;23.310;2023-02-28T06:25:05;94471.03;;;8.07;100.00
11682;BME280;5897;42.640;23.310;2023-02-28T06:27:33;94457.25;;;8.01;100.00
11682;BME280;5897;42.640;23.310;2023-02-28T06:30:07;94469.50;;;8.06;100.00
11682;BME280;5897;42.640;23.310;2023-02-28T06:32:34;94476.03;;;8.08;100.00
11682;BME280;5897;42.640;23.310;2023-02-28T06:35:01;94475.66;;;8.06;100.00
11682;BME280;5897;42.640;23.310;2023-02-28T06:37:30;94476.09;;;8.01;100.00
11682;BME280;5897;42.640;23.310;2023-02-28T06:39:58;94469.94;;;8.01;100.00
11682;BME280;5897;42.640;23.310;2023-02-28T06:42:25;94492.59;;;8.03;100.00
11682;BME280;5897;42.640;23.310;2023-02-28T06:44:54;94486.44;;;8.06;100.00
11682;BME280;5897;42.640;23.310;2023-02-28T06:47:21;94488.28;;;8.13;100.00
11682;BME280;5897;42.640;23.310;2023-02-28T06:49:48;94493.63;;;8.23;100.00
11682;BME280;5897;42.640;23.310;2023-02-28T06:52:15;94496.63;;;8.32;100.00
11682;BME280;5897;42.640;23.310;2023-02-28T06:54:42;94494.97;;;8.45;100.00
11682;BME280;5897;42.640;23.310;2023-02-28T06:57:10;94496.06;;;8.51;100.00
11682;BME280;5897;42.640;23.310;2023-02-28T06:59:37;94494.56;;;8.47;100.00
11682;BME280;5897;42.640;23.310;2023-02-28T07:02:03;94497.28;;;8.43;100.00
11682;BME280;5897;42.640;23.310;2023-02-28T07:04:31;94492.72;;;8.40;100.00
11682;BME280;5897;42.640;23.310;2023-02-28T07:06:58;94484.75;;;8.26;100.00
11682;BME280;5897;42.640;23.310;2023-02-28T07:09:25;94491.25;;;8.29;100.00
11682;BME280;5897;42.640;23.310;2023-02-28T07:11:55;94493.19;;;8.32;100.00
11682;BME280;5897;42.640;23.310;2023-02-28T07:14:23;94492.69;;;8.44;100.00
11682;BME280;5897;42.640;23.310;2023-02-28T07:16:50;94492.66;;;8.47;100.00
11682;BME280;5897;42.640;23.310;2023-02-28T07:19:17;94489.94;;;8.47;100.00
11682;BME280;5897;42.640;23.310;2023-02-28T07:21:43;94491.09;;;8.50;100.00
11682;BME280;5897;42.640;23.310;2023-02-28T07:24:10;94487.19;;;8.54;100.00
11682;BME280;5897;42.640;23.310;2023-02-28T07:26:37;94492.50;;;8.61;100.00
11682;BME280;5897;42.640;23.310;2023-02-28T07:29:04;94498.97;;;8.67;100.00
11682;BME280;5897;42.640;23.310;2023-02-28T07:31:32;94494.72;;;8.70;100.00
11682;BME280;5897;42.640;23.310;2023-02-28T07:33:59;94492.78;;;8.74;100.00
11682;BME280;5897;42.640;23.310;2023-02-28T07:36:26;94497.72;;;8.79;100.00
11682;BME280;5897;42.640;23.310;2023-02-28T07:38:53;94498.06;;;8.81;100.00
11682;BME280;5897;42.640;23.310;2023-02-28T07:41:21;94507.59;;;8.92;100.00
11682;BME280;5897;42.640;23.310;2023-02-28T07:43:52;94499.94;;;8.87;100.00
11682;BME280;5897;42.640;23.310;2023-02-28T07:46:20;94504.53;;;8.90;100.00
11682;BME280;5897;42.640;23.310;2023-02-28T07:48:48;94498.72;;;8.92;100.00
11682;BME280;5897;42.640;23.310;2023-02-28T07:51:15;94495.69;;;8.90;100.00
11682;BME280;5897;42.640;23.310;2023-02-28T07:53:42;94491.06;;;8.90;100.00
11682;BME280;5897;42.640;23.310;2023-02-28T07:56:08;94495.03;;;8.79;100.00
11682;BME280;5897;42.640;23.310;2023-02-28T07:58:36;94485.69;;;8.90;100.00
11682;BME280;5897;42.640;23.310;2023-02-28T08:01:06;94489.16;;;8.87;100.00
11682;BME280;5897;42.640;23.310;2023-02-28T08:03:34;94499.03;;;9.01;100.00
11682;BME280;5897;42.640;23.310;2023-02-28T08:06:02;94493.19;;;9.06;100.00
11682;BME280;5897;42.640;23.310;2023-02-28T08:08:29;94490.13;;;9.07;100.00
11682;BME280;5897;42.640;23.310;2023-02-28T08:10:58;94488.25;;;9.01;100.00
11682;BME280;5897;42.640;23.310;2023-02-28T08:13:25;94483.50;;;9.12;100.00
11682;BME280;5897;42.640;23.310;2023-02-28T08:15:52;94489.56;;;9.19;100.00
11682;BME280;5897;42.640;23.310;2023-02-28T08:18:19;94498.19;;;9.07;100.00
11682;BME280;5897;42.640;23.310;2023-02-28T08:20:46;94484.69;;;9.11;100.00
11682;BME280;5897;42.640;23.310;2023-02-28T08:23:14;94497.72;;;9.16;100.00
11682;BME280;5897;42.640;23.310;2023-02-28T08:25:41;94499.16;;;9.24;100.00
11682;BME280;5897;42.640;23.310;2023-02-28T08:28:08;94501.78;;;9.27;100.00
11682;BME280;5897;42.640;23.310;2023-02-28T08:30:35;94494.19;;;9.19;100.00
11682;BME280;5897;42.640;23.310;2023-02-28T08:33:02;94496.06;;;9.25;100.00
11682;BME280;5897;42.640;23.310;2023-02-28T08:35:29;94509.31;;;9.09;100.00
11682;BME280;5897;42.640;23.310;2023-02-28T08:37:55;94504.34;;;9.08;100.00
11682;BME280;5897;42.640;23.310;2023-02-28T08:40:25;94505.16;;;9.01;100.00
11682;BME280;5897;42.640;23.310;2023-02-28T08:42:52;94506.28;;;9.07;100.00
11682;BME280;5897;42.640;23.310;2023-02-28T08:45:19;94510.41;;;9.15;100.00
11682;BME280;5897;42.640;23.310;2023-02-28T08:47:46;94506.16;;;9.18;100.00
11682;BME280;5897;42.640;23.310;2023-02-28T08:50:12;94504.59;;;9.20;100.00
11682;BME280;5897;42.640;23.310;2023-02-28T08:52:42;94499.72;;;9.08;100.00
11682;BME280;5897;42.640;23.310;2023-02-28T08:55:09;94508.13;;;9.14;100.00
11682;BME280;5897;42.640;23.310;2023-02-28T08:57:37;94507.44;;;9.06;100.00
11682;BME280;5897;42.640;23.310;2023-02-28T09:00:05;94510.50;;;9.08;100.00
11682;BME280;5897;42.640;23.310;2023-02-28T09:02:33;94517.41;;;9.09;100.00
11682;BME280;5897;42.640;23.310;2023-02-28T09:05:00;94517.03;;;9.11;100.00
11682;BME280;5897;42.640;23.310;2023-02-28T09:07:28;94512.03;;;9.09;100.00
11682;BME280;5897;42.640;23.310;2023-02-28T09:09:55;94506.19;;;9.14;100.00
11682;BME280;5897;42.640;23.310;2023-02-28T09:12:24;94509.16;;;9.23;100.00
11682;BME280;5897;42.640;23.310;2023-02-28T09:14:53;94502.53;;;9.31;100.00
11682;BME280;5897;42.640;23.310;2023-02-28T09:17:20;94505.44;;;9.44;100.00
11682;BME280;5897;42.640;23.310;2023-02-28T09:19:47;94504.72;;;9.40;100.00
11682;BME280;5897;42.640;23.310;2023-02-28T09:22:14;94499.38;;;9.36;100.00
11682;BME280;5897;42.640;23.310;2023-02-28T09:24:42;94503.78;;;9.53;100.00
11682;BME280;5897;42.640;23.310;2023-02-28T09:27:09;94498.88;;;9.75;100.00
11682;BME280;5897;42.640;23.310;2023-02-28T09:29:36;94497.28;;;9.77;100.00
11682;BME280;5897;42.640;23.310;2023-02-28T09:32:05;94498.53;;;9.73;100.00
11682;BME280;5897;42.640;23.310;2023-02-28T09:34:32;94499.31;;;9.96;100.00
11682;BME280;5897;42.640;23.310;2023-02-28T09:36:59;94494.88;;;10.13;100.00
11682;BME280;5897;42.640;23.310;2023-02-28T09:39:25;94498.13;;;10.27;100.00
11682;BME280;5897;42.640;23.310;2023-02-28T09:41:56;94490.59;;;10.38;100.00
11682;BME280;5897;42.640;23.310;2023-02-28T09:44:28;94494.19;;;10.55;100.00
11682;BME280;5897;42.640;23.310;2023-02-28T09:47:00;94492.06;;;10.66;100.00
11682;BME280;5897;42.640;23.310;2023-02-28T09:49:34;94493.50;;;10.70;100.00
11682;BME280;5897;42.640;23.310;2023-02-28T09:52:06;94489.81;;;10.84;100.00
11682;BME280;5897;42.640;23.310;2023-02-28T09:54:34;94486.78;;;11.01;100.00
11682;BME280;5897;42.640;23.310;2023-02-28T09:57:07;94479.41;;;10.82;100.00
11682;BME280;5897;42.640;23.310;2023-02-28T10:00:05;94494.69;;;11.12;100.00
11682;BME280;5897;42.640;23.310;2023-02-28T10:02:58;94481.16;;;11.12;100.00
11682;BME280;5897;42.640;23.310;2023-02-28T10:05:33;94480.28;;;11.18;100.00
11682;BME280;5897;42.640;23.310;2023-02-28T10:08:08;94470.56;;;11.21;100.00
11682;BME280;5897;42.640;23.310;2023-02-28T10:10:39;94480.59;;;11.20;100.00
11682;BME280;5897;42.640;23.310;2023-02-28T10:13:21;94474.78;;;11.22;100.00
11682;BME280;5897;42.640;23.310;2023-02-28T10:15:55;94473.13;;;11.28;100.00
11682;BME280;5897;42.640;23.310;2023-02-28T10:18:27;94476.72;;;11.41;100.00
11682;BME280;5897;42.640;23.310;2023-02-28T10:20:58;94462.53;;;11.52;100.00
11682;BME280;5897;42.640;23.310;2023-02-28T10:23:28;94468.34;;;11.35;100.00
11682;BME280;5897;42.640;23.310;2023-02-28T10:26:00;94460.28;;;11.32;100.00
11682;BME280;5897;42.640;23.310;2023-02-28T10:28:29;94460.16;;;11.39;100.00
11682;BME280;5897;42.640;23.310;2023-02-28T10:30:57;94447.91;;;11.50;98.54
11682;BME280;5897;42.640;23.310;2023-02-28T10:33:29;94451.22;;;11.57;97.61
11682;BME280;5897;42.640;23.310;2023-02-28T10:35:58;94437.16;;;11.47;97.10
11682;BME280;5897;42.640;23.310;2023-02-28T10:38:27;94430.38;;;11.74;96.58
11682;BME280;5897;42.640;23.310;2023-02-28T10:41:05;94433.03;;;11.93;95.48
11682;BME280;5897;42.640;23.310;2023-02-28T10:43:32;94423.56;;;12.02;94.12
11682;BME280;5897;42.640;23.310;2023-02-28T10:46:02;94427.38;;;11.88;95.49
11682;BME280;5897;42.640;23.310;2023-02-28T10:48:36;94420.25;;;11.78;95.75
11682;BME280;5897;42.640;23.310;2023-02-28T10:51:07;94415.28;;;11.93;95.67
11682;BME280;5897;42.640;23.310;2023-02-28T10:53:37;94415.53;;;11.82;95.86
11682;BME280;5897;42.640;23.310;2023-02-28T10:56:15;94415.41;;;11.70;95.45
11682;BME280;5897;42.640;23.310;2023-02-28T10:58:49;94408.91;;;11.67;94.82
11682;BME280;5897;42.640;23.310;2023-02-28T11:01:18;94408.25;;;11.79;94.37
11682;BME280;5897;42.640;23.310;2023-02-28T11:03:46;94413.06;;;11.88;91.09
11682;BME280;5897;42.640;23.310;2023-02-28T11:06:17;94385.56;;;11.89;87.28
11682;BME280;5897;42.640;23.310;2023-02-28T11:08:46;94400.63;;;12.06;86.54
11682;BME280;5897;42.640;23.310;2023-02-28T11:11:14;94387.44;;;11.92;87.74
11682;BME280;5897;42.640;23.310;2023-02-28T11:13:43;94392.00;;;12.11;86.81
11682;BME280;5897;42.640;23.310;2023-02-28T11:16:12;94395.72;;;12.01;87.11
11682;BME280;5897;42.640;23.310;2023-02-28T11:18:43;94394.03;;;12.07;86.32
11682;BME280;5897;42.640;23.310;2023-02-28T11:21:18;94391.22;;;12.10;86.33
11682;BME280;5897;42.640;23.310;2023-02-28T11:23:47;94387.19;;;12.02;86.33
11682;BME280;5897;42.640;23.310;2023-02-28T11:26:16;94390.56;;;11.91;87.42
11682;BME280;5897;42.640;23.310;2023-02-28T11:29:10;94384.91;;;12.01;86.02
11682;BME280;5897;42.640;23.310;2023-02-28T11:31:37;94395.41;;;12.15;85.04
11682;BME280;5897;42.640;23.310;2023-02-28T11:34:23;94382.59;;;12.15;84.01
11682;BME280;5897;42.640;23.310;2023-02-28T11:36:53;94382.19;;;12.01;85.41
11682;BME280;5897;42.640;23.310;2023-02-28T11:39:22;94381.34;;;12.04;85.22
11682;BME280;5897;42.640;23.310;2023-02-28T11:42:07;94377.13;;;12.03;85.02
11682;BME280;5897;42.640;23.310;2023-02-28T11:44:47;94379.91;;;11.99;85.87
11682;BME280;5897;42.640;23.310;2023-02-28T11:47:26;94377.00;;;12.22;85.70
11682;BME280;5897;42.640;23.310;2023-02-28T11:50:16;94368.94;;;12.35;85.72
11682;BME280;5897;42.640;23.310;2023-02-28T11:52:52;94370.16;;;12.62;84.54
11682;BME280;5897;42.640;23.310;2023-02-28T11:55:21;94371.84;;;12.85;81.51
11682;BME280;5897;42.640;23.310;2023-02-28T11:58:00;94362.19;;;13.00;80.93
11682;BME280;5897;42.640;23.310;2023-02-28T12:00:38;94368.88;;;12.95;79.99
11682;BME280;5897;42.640;23.310;2023-02-28T12:03:17;94369.69;;;13.08;79.78
11682;BME280;5897;42.640;23.310;2023-02-28T12:05:56;94363.19;;;12.90;80.44
11682;BME280;5897;42.640;23.310;2023-02-28T12:08:42;94369.97;;;12.98;81.13
11682;BME280;5897;42.640;23.310;2023-02-28T12:11:15;94367.94;;;13.02;79.74
11682;BME280;5897;42.640;23.310;2023-02-28T12:13:49;94365.25;;;13.14;78.54
11682;BME280;5897;42.640;23.310;2023-02-28T12:16:45;94357.59;;;12.97;79.52
11682;BME280;5897;42.640;23.310;2023-02-28T12:19:19;94362.00;;;12.91;78.63
11682;BME280;5897;42.640;23.310;2023-02-28T12:22:05;94364.28;;;12.64;80.16
11682;BME280;5897;42.640;23.310;2023-02-28T12:27:44;94356.16;;;12.64;81.74
11682;BME280;5897;42.640;23.310;2023-02-28T12:30:17;94353.31;;;12.83;80.57
11682;BME280;5897;42.640;23.310;2023-02-28T12:32:48;94357.50;;;12.72;79.98
11682;BME280;5897;42.640;23.310;2023-02-28T12:35:20;94359.50;;;12.27;82.32
11682;BME280;5897;42.640;23.310;2023-02-28T12:37:53;94357.38;;;12.18;83.11
11682;BME280;5897;42.640;23.310;2023-02-28T12:40:25;94363.72;;;12.28;81.90
11682;BME280;5897;42.640;23.310;2023-02-28T12:42:59;94350.25;;;12.24;81.29
11682;BME280;5897;42.640;23.310;2023-02-28T12:45:31;94359.31;;;12.34;81.07
11682;BME280;5897;42.640;23.310;2023-02-28T12:48:06;94355.25;;;12.26;81.90
11682;BME280;5897;42.640;23.310;2023-02-28T12:50:35;94360.50;;;12.17;82.42
11682;BME280;5897;42.640;23.310;2023-02-28T12:53:07;94357.19;;;12.25;81.36
11682;BME280;5897;42.640;23.310;2023-02-28T12:55:42;94345.03;;;12.18;81.77
11682;BME280;5897;42.640;23.310;2023-02-28T12:58:20;94353.69;;;12.41;82.45
11682;BME280;5897;42.640;23.310;2023-02-28T13:01:13;94357.50;;;12.72;80.16
11682;BME280;5897;42.640;23.310;2023-02-28T13:04:07;94354.81;;;12.84;78.94
11682;BME280;5897;42.640;23.310;2023-02-28T13:06:50;94354.41;;;12.86;78.49
11682;BME280;5897;42.640;23.310;2023-02-28T13:09:20;94354.81;;;12.84;79.11
11682;BME280;5897;42.640;23.310;2023-02-28T13:11:49;94350.84;;;12.89;78.64
11682;BME280;5897;42.640;23.310;2023-02-28T13:14:26;94356.25;;;12.89;78.10
11682;BME280;5897;42.640;23.310;2023-02-28T13:16:57;94356.25;;;12.60;79.02
11682;BME280;5897;42.640;23.310;2023-02-28T13:19:25;94359.13;;;12.25;81.41
11682;BME280;5897;42.640;23.310;2023-02-28T13:21:57;94361.50;;;12.39;80.27
11682;BME280;5897;42.640;23.310;2023-02-28T13:24:40;94353.28;;;12.26;80.70